createdAt,value
2023-01-15T00:00:05.883Z,96840.41
2023-01-15T00:02:35.493Z,96835.81
2023-01-15T00:05:03.450Z,96833.25
2023-01-15T00:07:31.320Z,96831.72
2023-01-15T00:09:57.947Z,96830.00
2023-01-15T00:12:24.429Z,96831.78
2023-01-15T00:14:50.905Z,96822.91
2023-01-15T00:17:17.437Z,96813.25
2023-01-15T00:19:43.875Z,96820.25
2023-01-15T00:22:10.350Z,96836.16
2023-01-15T00:24:58.789Z,96841.34
2023-01-15T00:27:40.274Z,96844.88
2023-01-15T00:30:13.094Z,96850.00
2023-01-15T00:32:40.625Z,96835.03
2023-01-15T00:35:09.925Z,96842.94
2023-01-15T00:37:36.404Z,96843.84
2023-01-15T00:40:03.140Z,96843.03
2023-01-15T00:42:29.602Z,96859.75
2023-01-15T00:44:56.056Z,96855.47
2023-01-15T00:47:22.611Z,96865.22
2023-01-15T00:49:50.374Z,96874.97
2023-01-15T00:52:20.055Z,96879.50
2023-01-15T00:54:54.077Z,96871.59
2023-01-15T00:57:21.266Z,96880.41
2023-01-15T00:59:47.772Z,96889.22
2023-01-15T01:02:14.433Z,96884.00
2023-01-15T01:04:41.860Z,96894.63
2023-01-15T01:07:08.538Z,96889.41
2023-01-15T01:09:38.072Z,96878.19
2023-01-15T01:12:05.178Z,96884.44
2023-01-15T01:14:31.938Z,96905.59
2023-01-15T01:16:58.819Z,96914.41
2023-01-15T01:19:26.808Z,96914.50
2023-01-15T01:21:53.271Z,96917.22
2023-01-15T01:24:22.424Z,96913.41
2023-01-15T01:26:52.790Z,96916.31
2023-01-15T01:29:25.450Z,96924.34
2023-01-15T01:31:52.178Z,96929.72
2023-01-15T01:34:19.238Z,96933.34
2023-01-15T01:36:46.056Z,96928.09
2023-01-15T01:39:18.365Z,96927.28
2023-01-15T01:41:46.475Z,96925.72
2023-01-15T01:44:35.052Z,96929.31
2023-01-15T01:47:05.291Z,96913.53
2023-01-15T01:49:31.849Z,96925.03
2023-01-15T01:52:14.951Z,96955.81
2023-01-15T01:54:42.556Z,96944.41
2023-01-15T01:57:10.346Z,96947.16
2023-01-15T01:59:38.185Z,96976.97
2023-01-15T02:02:05.764Z,96983.50
2023-01-15T02:04:33.028Z,97000.03
2023-01-15T02:07:01.603Z,97007.56
2023-01-15T02:09:34.477Z,97010.63
2023-01-15T02:12:36.930Z,97022.28
2023-01-15T02:15:06.221Z,97030.25
2023-01-15T02:17:59.115Z,97036.63
2023-01-15T02:20:41.246Z,97038.50
2023-01-15T02:23:07.551Z,97039.44
2023-01-15T02:25:42.172Z,97043.84
2023-01-15T02:28:22.807Z,97059.63
2023-01-15T02:31:00.015Z,97040.59
2023-01-15T02:33:33.852Z,97055.59
2023-01-15T02:36:06.692Z,97042.56
2023-01-15T02:38:39.379Z,97058.47
2023-01-15T02:41:16.200Z,97045.38
2023-01-15T02:43:46.088Z,97062.06
2023-01-15T02:46:15.358Z,97068.19
2023-01-15T02:48:44.768Z,97071.72
2023-01-15T02:51:16.064Z,97084.06
2023-01-15T02:53:49.790Z,97091.09
2023-01-15T02:56:21.064Z,97085.09
2023-01-15T02:58:53.186Z,97094.84
2023-01-15T03:01:29.303Z,97098.38
2023-01-15T03:04:04.017Z,97098.47
2023-01-15T03:06:37.834Z,97103.72
2023-01-15T03:09:06.252Z,97109.00
2023-01-15T03:11:38.059Z,97106.47
2023-01-15T03:14:10.834Z,97097.75
2023-01-15T03:16:40.207Z,97095.97
2023-01-15T03:19:45.119Z,97101.22
2023-01-15T03:22:14.320Z,97085.50
2023-01-15T03:24:51.799Z,97089.03
2023-01-15T03:27:19.319Z,97087.31
2023-01-15T03:29:49.092Z,97095.19
2023-01-15T03:32:17.647Z,97090.88
2023-01-15T03:34:51.367Z,97090.88
2023-01-15T03:37:19.937Z,97083.00
2023-01-15T03:39:47.564Z,97075.19
2023-01-15T03:42:41.811Z,97075.22
2023-01-15T03:45:23.033Z,97060.34
2023-01-15T03:47:54.248Z,97061.25
2023-01-15T03:50:36.814Z,97052.53
2023-01-15T03:53:08.916Z,97040.34
2023-01-15T03:55:38.442Z,97046.41
2023-01-15T03:58:17.852Z,97040.34
2023-01-15T04:00:52.732Z,97027.19
2023-01-15T04:03:22.216Z,97042.09
2023-01-15T04:05:52.024Z,97037.72
2023-01-15T04:08:19.814Z,97034.19
2023-01-15T04:10:53.797Z,97018.44
2023-01-15T04:13:21.101Z,97028.03
2023-01-15T04:15:47.676Z,97015.75
2023-01-15T04:18:14.208Z,97020.16
2023-01-15T04:20:40.668Z,97006.19
2023-01-15T04:23:09.297Z,97000.06
2023-01-15T04:25:38.075Z,97006.16
2023-01-15T04:28:04.808Z,97009.66
2023-01-15T04:30:31.341Z,97010.50
2023-01-15T04:32:58.239Z,97011.38
2023-01-15T04:35:24.758Z,97020.13
2023-01-15T04:37:55.962Z,97008.78
2023-01-15T04:40:41.024Z,97013.13
2023-01-15T04:43:29.477Z,97000.00
2023-01-15T04:45:56.233Z,97004.41
2023-01-15T04:48:23.323Z,97001.72
2023-01-15T04:50:49.946Z,96997.28
2023-01-15T04:53:16.522Z,97002.53
2023-01-15T04:55:43.086Z,96983.28
2023-01-15T04:58:09.642Z,96971.84
2023-01-15T05:00:36.175Z,96962.22
2023-01-15T05:03:02.685Z,96964.00
2023-01-15T05:05:29.150Z,96961.31
2023-01-15T05:07:55.636Z,96963.94
2023-01-15T05:10:22.099Z,96954.38
2023-01-15T05:12:48.598Z,96950.00
2023-01-15T05:15:15.172Z,96951.66
2023-01-15T05:17:41.671Z,96945.56
2023-01-15T05:20:08.835Z,96954.31
2023-01-15T05:22:35.585Z,96960.47
2023-01-15T05:25:02.121Z,96962.22
2023-01-15T05:27:28.555Z,96962.22
2023-01-15T05:29:55.028Z,96971.84
2023-01-15T05:32:21.468Z,96961.31
2023-01-15T05:34:47.998Z,96970.94
2023-01-15T05:37:14.911Z,96977.09
2023-01-15T05:39:41.391Z,96973.59
2023-01-15T05:42:07.952Z,96977.06
2023-01-15T05:44:34.549Z,96964.00
2023-01-15T05:47:05.714Z,96962.16
2023-01-15T05:49:34.969Z,96970.91
2023-01-15T05:52:02.134Z,96966.53
2023-01-15T05:54:31.267Z,96959.56
2023-01-15T05:56:58.886Z,96963.94
2023-01-15T05:59:28.317Z,96959.56
2023-01-15T06:01:55.287Z,96966.56
2023-01-15T06:04:22.650Z,96966.56
2023-01-15T06:06:50.493Z,96974.41
2023-01-15T06:09:20.684Z,96974.44
2023-01-15T06:11:47.761Z,96970.06
2023-01-15T06:14:15.695Z,96974.41
2023-01-15T06:16:42.299Z,96966.53
2023-01-15T06:19:09.680Z,96967.41
2023-01-15T06:21:36.751Z,96959.56
2023-01-15T06:24:04.216Z,96959.53
2023-01-15T06:26:31.050Z,96957.78
2023-01-15T06:28:58.667Z,96955.16
2023-01-15T06:31:28.888Z,96953.41
2023-01-15T06:33:56.207Z,96946.41
2023-01-15T06:36:26.056Z,96950.78
2023-01-15T06:38:52.684Z,96964.78
2023-01-15T06:41:40.945Z,96970.94
2023-01-15T06:44:30.756Z,96982.34
2023-01-15T06:47:15.519Z,96978.78
2023-01-15T06:49:42.053Z,96987.53
2023-01-15T06:52:08.708Z,96969.16
2023-01-15T06:54:35.427Z,96994.53
2023-01-15T06:57:01.988Z,96986.66
2023-01-15T06:59:28.583Z,96988.44
2023-01-15T07:01:55.145Z,96991.91
2023-01-15T07:04:21.651Z,96993.66
2023-01-15T07:06:48.181Z,96991.91
2023-01-15T07:09:14.730Z,96988.47
2023-01-15T07:11:50.046Z,96991.09
2023-01-15T07:14:17.729Z,96996.34
2023-01-15T07:16:44.223Z,97002.44
2023-01-15T07:19:11.293Z,96994.66
2023-01-15T07:21:37.781Z,96984.16
2023-01-15T07:24:07.584Z,96984.16
2023-01-15T07:26:34.607Z,96985.06
2023-01-15T07:29:01.088Z,96978.91
2023-01-15T07:31:27.744Z,96978.91
2023-01-15T07:33:56.229Z,96979.81
2023-01-15T07:36:23.334Z,96967.56
2023-01-15T07:38:50.355Z,96992.91
2023-01-15T07:41:35.595Z,96994.69
2023-01-15T07:44:20.855Z,97004.28
2023-01-15T07:47:06.450Z,96992.91
2023-01-15T07:49:51.195Z,96973.69
2023-01-15T07:52:21.415Z,96985.91
2023-01-15T07:54:49.699Z,96994.69
2023-01-15T07:57:21.857Z,96999.03
2023-01-15T07:59:49.817Z,97011.25
2023-01-15T08:02:16.387Z,97023.53
2023-01-15T08:04:43.101Z,97020.06
2023-01-15T08:07:10.022Z,97023.53
2023-01-15T08:09:36.989Z,97023.53
2023-01-15T08:12:26.035Z,97026.13
2023-01-15T08:15:10.823Z,97024.41
2023-01-15T08:17:38.272Z,97012.16
2023-01-15T08:20:09.115Z,97016.56
2023-01-15T08:22:35.968Z,97028.78
2023-01-15T08:25:02.496Z,97013.91
2023-01-15T08:27:31.600Z,97015.69
2023-01-15T08:29:59.210Z,97017.41
2023-01-15T08:32:25.696Z,97030.56
2023-01-15T08:34:52.477Z,97020.06
2023-01-15T08:37:19.121Z,97026.13
2023-01-15T08:39:46.222Z,97043.66
2023-01-15T08:42:12.801Z,97051.50
2023-01-15T08:44:39.325Z,97054.97
2023-01-15T08:47:05.800Z,97062.88
2023-01-15T08:49:32.301Z,97065.50
2023-01-15T08:51:58.813Z,97062.88
2023-01-15T08:54:25.626Z,97059.41
2023-01-15T08:56:52.357Z,97057.66
2023-01-15T08:59:19.181Z,97042.72
2023-01-15T09:01:45.932Z,97047.13
2023-01-15T09:04:17.192Z,97044.50
2023-01-15T09:06:44.402Z,97055.84
2023-01-15T09:09:11.653Z,97060.22
2023-01-15T09:11:42.402Z,97073.38
2023-01-15T09:15:00.225Z,97056.72
2023-01-15T09:17:00.380Z,97079.38
2023-01-15T09:19:26.913Z,97070.63
2023-01-15T09:21:53.401Z,97056.59
2023-01-15T09:24:19.921Z,97067.97
2023-01-15T09:26:46.457Z,97071.44
2023-01-15T09:29:12.958Z,97067.97
2023-01-15T09:31:39.605Z,97067.06
2023-01-15T09:34:06.124Z,97074.06
2023-01-15T09:36:35.163Z,97065.28
2023-01-15T09:39:02.973Z,97042.53
2023-01-15T09:42:10.781Z,97063.50
2023-01-15T09:44:46.480Z,97095.84
2023-01-15T09:47:24.981Z,97075.72
2023-01-15T09:50:20.854Z,97095.00
2023-01-15T09:52:50.122Z,97118.56
2023-01-15T09:55:25.041Z,97108.09
2023-01-15T09:57:58.475Z,97113.34
2023-01-15T10:00:27.762Z,97091.47
2023-01-15T10:03:00.203Z,97100.19
2023-01-15T10:05:33.878Z,97097.59
2023-01-15T10:08:17.761Z,97104.53
2023-01-15T10:10:48.594Z,97110.69
2023-01-15T10:13:26.978Z,97100.22
2023-01-15T10:15:53.754Z,97084.50
2023-01-15T10:18:23.135Z,97087.13
2023-01-15T10:21:18.948Z,97083.59
2023-01-15T10:24:03.962Z,97064.28
2023-01-15T10:26:33.431Z,97066.03
2023-01-15T10:29:01.574Z,97077.38
2023-01-15T10:31:59.919Z,97083.50
2023-01-15T10:34:42.121Z,97095.72
2023-01-15T10:37:27.610Z,97099.22
2023-01-15T10:40:17.224Z,97090.50
2023-01-15T10:42:43.632Z,97082.63
2023-01-15T10:45:18.744Z,97061.63
2023-01-15T10:47:50.017Z,97087.84
2023-01-15T10:50:25.180Z,97112.38
2023-01-15T10:53:10.247Z,97093.97
2023-01-15T10:55:45.378Z,97082.59
2023-01-15T10:58:34.386Z,97084.34
2023-01-15T11:01:06.680Z,97082.59
2023-01-15T11:03:38.469Z,97093.13
2023-01-15T11:06:08.295Z,97097.44
2023-01-15T11:09:07.925Z,97093.94
2023-01-15T11:11:56.744Z,97110.53
2023-01-15T11:14:59.684Z,97091.28
2023-01-15T11:18:00.239Z,97101.78
2023-01-15T11:20:32.709Z,97087.81
2023-01-15T11:23:09.760Z,97082.63
2023-01-15T11:25:36.640Z,97089.63
2023-01-15T11:28:06.860Z,97080.00
2023-01-15T11:30:37.791Z,97068.56
2023-01-15T11:33:16.964Z,97050.16
2023-01-15T11:35:50.837Z,97064.22
2023-01-15T11:38:17.373Z,97082.56
2023-01-15T11:40:54.911Z,97078.13
2023-01-15T11:43:45.110Z,97050.97
2023-01-15T11:46:50.782Z,97071.09
2023-01-15T11:49:38.411Z,97086.03
2023-01-15T11:52:08.566Z,97071.22
2023-01-15T11:54:39.191Z,97067.75
2023-01-15T11:57:06.935Z,97060.75
2023-01-15T11:59:33.534Z,97078.16
2023-01-15T12:02:15.790Z,97084.25
2023-01-15T12:04:54.331Z,97069.34
2023-01-15T12:07:24.395Z,97094.66
2023-01-15T12:10:15.140Z,97100.78
2023-01-15T12:12:55.683Z,97092.91
2023-01-15T12:15:46.521Z,97107.72
2023-01-15T12:18:43.981Z,97109.47
2023-01-15T12:21:35.563Z,97091.16
2023-01-15T12:24:29.352Z,97083.31
2023-01-15T12:27:14.139Z,97090.34
2023-01-15T12:29:48.322Z,97097.34
2023-01-15T12:32:19.681Z,97095.56
2023-01-15T12:35:02.370Z,97092.03
2023-01-15T12:37:36.015Z,97094.59
2023-01-15T12:40:14.694Z,97081.53
2023-01-15T12:43:02.444Z,97093.88
2023-01-15T12:45:34.581Z,97095.56
2023-01-15T12:48:22.195Z,97097.34
2023-01-15T12:50:54.621Z,97103.56
2023-01-15T12:53:32.357Z,97079.97
2023-01-15T12:56:31.425Z,97087.75
2023-01-15T12:59:23.862Z,97109.66
2023-01-15T13:01:59.727Z,97111.44
2023-01-15T13:04:43.154Z,97098.34
2023-01-15T13:07:32.879Z,97107.13
2023-01-15T13:10:18.714Z,97100.13
2023-01-15T13:12:45.219Z,97108.00
2023-01-15T13:15:19.784Z,97112.38
2023-01-15T13:18:12.547Z,97113.25
2023-01-15T13:20:51.384Z,97122.88
2023-01-15T13:23:44.305Z,97112.34
2023-01-15T13:26:16.690Z,97135.09
2023-01-15T13:29:14.145Z,97121.09
2023-01-15T13:31:54.597Z,97114.94
2023-01-15T13:34:47.503Z,97104.47
2023-01-15T13:37:23.111Z,97121.13
2023-01-15T13:39:52.118Z,97118.50
2023-01-15T13:42:38.081Z,97098.41
2023-01-15T13:45:16.866Z,97108.91
2023-01-15T13:47:50.768Z,97108.06
2023-01-15T13:50:23.274Z,97118.56
2023-01-15T13:52:49.826Z,97110.69
2023-01-15T13:55:16.260Z,97120.31
2023-01-15T13:57:44.511Z,97116.88
2023-01-15T14:00:26.576Z,97131.75
2023-01-15T14:02:54.386Z,97130.84
2023-01-15T14:05:31.886Z,97138.66
2023-01-15T14:08:01.361Z,97129.84
2023-01-15T14:10:30.848Z,97129.84
2023-01-15T14:13:09.406Z,97128.13
2023-01-15T14:16:13.469Z,97138.63
2023-01-15T14:19:07.836Z,97119.34
2023-01-15T14:21:58.825Z,97108.84
2023-01-15T14:24:50.230Z,97105.38
2023-01-15T14:27:50.905Z,97117.63
2023-01-15T14:30:36.894Z,97122.91
2023-01-15T14:33:37.222Z,97123.78
2023-01-15T14:36:16.674Z,97130.75
2023-01-15T14:38:53.476Z,97105.38
2023-01-15T14:41:29.131Z,97136.91
2023-01-15T14:43:57.978Z,97134.28
2023-01-15T14:46:37.705Z,97130.72
2023-01-15T14:49:04.522Z,97129.84
2023-01-15T14:51:50.100Z,97121.97
2023-01-15T14:54:19.819Z,97136.00
2023-01-15T14:56:53.610Z,97127.22
2023-01-15T14:59:36.863Z,97119.38
2023-01-15T15:02:18.553Z,97104.56
2023-01-15T15:04:51.265Z,97125.50
2023-01-15T15:07:24.471Z,97133.41
2023-01-15T15:10:01.108Z,97127.28
2023-01-15T15:13:06.122Z,97122.03
2023-01-15T15:15:47.805Z,97142.97
2023-01-15T15:18:34.811Z,97152.59
2023-01-15T15:21:09.895Z,97141.22
2023-01-15T15:24:08.747Z,97144.75
2023-01-15T15:26:37.362Z,97150.81
2023-01-15T15:29:16.185Z,97161.34
2023-01-15T15:31:53.482Z,97149.09
2023-01-15T15:34:24.430Z,97148.22
2023-01-15T15:36:50.974Z,97166.56
2023-01-15T15:39:27.373Z,97147.28
2023-01-15T15:42:16.314Z,97167.38
2023-01-15T15:45:25.443Z,97168.28
2023-01-15T15:48:15.631Z,97163.91
2023-01-15T15:50:42.158Z,97172.69
2023-01-15T15:53:17.354Z,97164.84
2023-01-15T15:55:45.847Z,97156.91
2023-01-15T15:58:22.678Z,97152.53
2023-01-15T16:00:49.323Z,97156.91
2023-01-15T16:03:25.150Z,97154.31
2023-01-15T16:05:59.796Z,97163.06
2023-01-15T16:08:27.971Z,97149.97
2023-01-15T16:10:57.778Z,97166.56
2023-01-15T16:13:38.374Z,97163.06
2023-01-15T16:16:08.099Z,97144.69
2023-01-15T16:18:44.265Z,97150.84
2023-01-15T16:21:16.032Z,97150.94
2023-01-15T16:23:46.109Z,97160.53
2023-01-15T16:26:19.846Z,97156.19
2023-01-15T16:28:55.318Z,97170.19
2023-01-15T16:31:23.029Z,97178.94
2023-01-15T16:33:58.208Z,97164.97
2023-01-15T16:36:27.036Z,97166.78
2023-01-15T16:38:54.850Z,97150.13
2023-01-15T16:41:29.584Z,97148.38
2023-01-15T16:43:59.961Z,97151.88
2023-01-15T16:46:31.143Z,97164.94
2023-01-15T16:49:23.448Z,97171.97
2023-01-15T16:51:52.838Z,97151.88
2023-01-15T16:54:31.552Z,97162.38
2023-01-15T16:57:16.861Z,97164.13
2023-01-15T16:59:46.271Z,97148.44
2023-01-15T17:02:15.850Z,97154.56
2023-01-15T17:04:46.285Z,97158.03
2023-01-15T17:07:18.940Z,97164.16
2023-01-15T17:09:49.605Z,97158.94
2023-01-15T17:12:30.125Z,97164.28
2023-01-15T17:15:14.829Z,97169.53
2023-01-15T17:17:46.183Z,97160.78
2023-01-15T17:20:13.832Z,97152.97
2023-01-15T17:22:43.060Z,97145.06
2023-01-15T17:25:27.812Z,97152.06
2023-01-15T17:27:56.047Z,97146.81
2023-01-15T17:30:30.674Z,97168.66
2023-01-15T17:33:01.544Z,97165.16
2023-01-15T17:35:33.823Z,97158.16
2023-01-15T17:38:00.349Z,97165.16
2023-01-15T17:40:27.127Z,97172.19
2023-01-15T17:42:56.281Z,97193.22
2023-01-15T17:45:28.774Z,97166.06
2023-01-15T17:47:55.272Z,97166.94
2023-01-15T17:50:22.645Z,97180.91
2023-01-15T17:52:50.144Z,97194.94
2023-01-15T17:55:42.938Z,97194.06
2023-01-15T17:58:48.136Z,97184.44
2023-01-15T18:01:39.966Z,97185.28
2023-01-15T18:04:49.489Z,97183.56
2023-01-15T18:07:17.248Z,97187.84
2023-01-15T18:09:44.186Z,97203.59
2023-01-15T18:12:10.972Z,97185.22
2023-01-15T18:14:37.603Z,97189.63
2023-01-15T18:17:04.134Z,97183.50
2023-01-15T18:19:30.701Z,97184.38
2023-01-15T18:21:57.679Z,97206.22
2023-01-15T18:24:24.192Z,97186.97
2023-01-15T18:26:53.563Z,97198.34
2023-01-15T18:29:20.614Z,97201.84
2023-01-15T18:31:47.776Z,97169.53
2023-01-15T18:34:14.399Z,97192.25
2023-01-15T18:36:41.340Z,97177.44
2023-01-15T18:39:08.474Z,97202.75
2023-01-15T18:41:37.767Z,97198.41
2023-01-15T18:44:33.987Z,97188.78
2023-01-15T18:47:03.875Z,97195.75
2023-01-15T18:49:30.922Z,97189.63
2023-01-15T18:52:16.795Z,97195.75
2023-01-15T18:54:46.782Z,97189.63
2023-01-15T18:57:13.413Z,97193.16
2023-01-15T18:59:39.895Z,97159.94
2023-01-15T19:02:07.173Z,97191.41
2023-01-15T19:04:33.771Z,97183.53
2023-01-15T19:07:00.365Z,97187.88
2023-01-15T19:09:26.999Z,97184.38
2023-01-15T19:11:53.855Z,97216.75
2023-01-15T19:14:40.470Z,97184.41
2023-01-15T19:17:30.317Z,97198.41
2023-01-15T19:19:56.786Z,97173.09
2023-01-15T19:22:41.877Z,97212.41
2023-01-15T19:25:08.751Z,97194.06
2023-01-15T19:27:38.764Z,97192.28
2023-01-15T19:30:07.040Z,97195.81
2023-01-15T19:32:34.316Z,97194.94
2023-01-15T19:35:00.793Z,97203.72
2023-01-15T19:37:27.907Z,97190.59
2023-01-15T19:39:54.459Z,97212.44
2023-01-15T19:42:39.377Z,97214.22
2023-01-15T19:45:25.070Z,97216.84
2023-01-15T19:48:10.128Z,97217.69
2023-01-15T19:50:42.186Z,97220.31
2023-01-15T19:53:09.555Z,97213.34
2023-01-15T19:55:38.379Z,97202.84
2023-01-15T19:58:07.454Z,97219.47
2023-01-15T20:00:40.175Z,97204.63
2023-01-15T20:03:09.860Z,97220.38
2023-01-15T20:05:38.020Z,97200.28
2023-01-15T20:08:04.997Z,97223.00
2023-01-15T20:10:34.402Z,97202.00
2023-01-15T20:13:20.028Z,97211.59
2023-01-15T20:15:46.726Z,97202.84
2023-01-15T20:18:15.719Z,97209.88
2023-01-15T20:20:42.213Z,97217.72
2023-01-15T20:23:08.741Z,97214.28
2023-01-15T20:25:36.453Z,97204.66
2023-01-15T20:28:03.118Z,97217.78
2023-01-15T20:30:29.837Z,97210.75
2023-01-15T20:33:01.668Z,97212.50
2023-01-15T20:35:36.078Z,97202.06
2023-01-15T20:38:02.779Z,97197.69
2023-01-15T20:40:29.596Z,97207.34
2023-01-15T20:43:15.041Z,97198.59
2023-01-15T20:45:41.584Z,97201.22
2023-01-15T20:48:11.597Z,97196.88
2023-01-15T20:50:44.016Z,97184.63
2023-01-15T20:53:11.035Z,97202.13
2023-01-15T20:55:54.474Z,97197.75
2023-01-15T20:58:23.580Z,97191.63
2023-01-15T21:00:50.785Z,97188.16
2023-01-15T21:03:18.053Z,97181.19
2023-01-15T21:05:45.105Z,97184.69
2023-01-15T21:08:15.205Z,97183.81
2023-01-15T21:10:42.768Z,97185.59
2023-01-15T21:13:12.940Z,97191.72
2023-01-15T21:15:39.491Z,97200.44
2023-01-15T21:18:06.076Z,97212.69
2023-01-15T21:20:32.611Z,97196.94
2023-01-15T21:22:59.081Z,97214.50
2023-01-15T21:25:25.654Z,97199.72
2023-01-15T21:27:52.335Z,97200.59
2023-01-15T21:30:20.795Z,97193.66
2023-01-15T21:32:50.190Z,97186.69
2023-01-15T21:35:16.768Z,97182.34
2023-01-15T21:37:43.287Z,97177.97
2023-01-15T21:40:10.602Z,97178.00
2023-01-15T21:42:55.742Z,97191.06
2023-01-15T21:45:28.161Z,97167.50
2023-01-15T21:47:54.829Z,97185.81
2023-01-15T21:50:21.898Z,97169.22
2023-01-15T21:52:50.771Z,97175.34
2023-01-15T21:55:17.277Z,97192.78
2023-01-15T21:57:44.909Z,97179.69
2023-01-15T22:00:11.911Z,97181.44
2023-01-15T22:02:38.830Z,97195.38
2023-01-15T22:05:05.560Z,97189.25
2023-01-15T22:07:34.883Z,97198.84
2023-01-15T22:10:01.727Z,97199.72
2023-01-15T22:12:28.252Z,97198.84
2023-01-15T22:14:56.581Z,97185.75
2023-01-15T22:17:23.701Z,97194.50
2023-01-15T22:19:53.037Z,97197.09
2023-01-15T22:22:19.729Z,97183.13
2023-01-15T22:24:46.224Z,97186.59
2023-01-15T22:27:15.773Z,97194.41
2023-01-15T22:29:42.857Z,97183.06
2023-01-15T22:32:12.986Z,97183.03
2023-01-15T22:34:39.867Z,97185.66
2023-01-15T22:37:06.337Z,97188.28
2023-01-15T22:39:33.111Z,97177.78
2023-01-15T22:42:18.249Z,97180.38
2023-01-15T22:44:45.131Z,97186.47
2023-01-15T22:47:13.707Z,97189.97
2023-01-15T22:49:40.207Z,97180.38
2023-01-15T22:52:09.958Z,97176.03
2023-01-15T22:54:36.475Z,97170.81
2023-01-15T22:57:04.185Z,97177.81
2023-01-15T22:59:30.799Z,97169.97
2023-01-15T23:02:00.828Z,97163.91
2023-01-15T23:04:30.870Z,97171.72
2023-01-15T23:07:00.118Z,97163.91
2023-01-15T23:09:26.609Z,97158.66
2023-01-15T23:11:55.272Z,97158.66
2023-01-15T23:14:22.190Z,97156.91
2023-01-15T23:16:49.864Z,97160.41
2023-01-15T23:19:18.069Z,97151.69
2023-01-15T23:21:47.180Z,97157.81
2023-01-15T23:24:13.758Z,97157.84
2023-01-15T23:26:40.635Z,97154.34
2023-01-15T23:29:10.462Z,97148.22
2023-01-15T23:31:36.947Z,97145.63
2023-01-15T23:34:03.528Z,97145.63
2023-01-15T23:36:30.015Z,97144.78
2023-01-15T23:38:56.479Z,97136.09
2023-01-15T23:41:43.927Z,97143.06
2023-01-15T23:44:37.008Z,97130.84
2023-01-15T23:47:04.427Z,97130.00
2023-01-15T23:49:36.319Z,97130.00
2023-01-15T23:52:05.811Z,97120.38
2023-01-15T23:54:35.067Z,97127.38
2023-01-15T23:57:02.056Z,97127.34
2023-01-15T23:59:29.216Z,97124.75
